sensor_id;sensor_type;location;lat;lon;timestamp;P1;P2;P0
50866;PMS7003;36839;51.946;21.002;2023-02-28T00:01:23;25.00;23.00;16.00
50866;PMS7003;36839;51.946;21.002;2023-02-28T00:03:50;26.50;23.00;16.50
50866;PMS7003;36839;51.946;21.002;2023-02-28T00:06:22;20.00;20.00;13.00
50866;PMS7003;36839;51.946;21.002;2023-02-28T00:08:50;26.00;20.00;17.00
50866;PMS7003;36839;51.946;21.002;2023-02-28T00:11:17;25.00;18.00;15.00
50866;PMS7003;36839;51.946;21.002;2023-02-28T00:18:42;26.00;22.00;16.00
50866;PMS7003;36839;51.946;21.002;2023-02-28T00:21:09;28.67;28.00;20.00
50866;PMS7003;36839;51.946;21.002;2023-02-28T00:23:36;26.50;23.50;17.00
50866;PMS7003;36839;51.946;21.002;2023-02-28T00:26:04;26.00;22.00;15.00
50866;PMS7003;36839;51.946;21.002;2023-02-28T00:31:01;23.00;20.00;15.50
50866;PMS7003;36839;51.946;21.002;2023-02-28T00:33:28;34.00;29.00;18.00
50866;PMS7003;36839;51.946;21.002;2023-02-28T00:36:02;35.00;29.00;22.00
50866;PMS7003;36839;51.946;21.002;2023-02-28T00:38:34;48.00;33.50;23.50
50866;PMS7003;36839;51.946;21.002;2023-02-28T00:41:01;37.00;30.50;19.50
50866;PMS7003;36839;51.946;21.002;2023-02-28T00:43:32;29.00;29.00;22.00
50866;PMS7003;36839;51.946;21.002;2023-02-28T00:46:01;30.00;25.50;19.50
50866;PMS7003;36839;51.946;21.002;2023-02-28T00:48:29;33.00;25.00;17.00
50866;PMS7003;36839;51.946;21.002;2023-02-28T00:50:56;23.00;22.00;16.00
50866;PMS7003;36839;51.946;21.002;2023-02-28T00:53:24;21.00;18.00;12.00
50866;PMS7003;36839;51.946;21.002;2023-02-28T00:55:52;30.00;23.00;17.00
50866;PMS7003;36839;51.946;21.002;2023-02-28T00:58:19;33.00;27.00;21.00
50866;PMS7003;36839;51.946;21.002;2023-02-28T01:00:46;30.50;21.00;15.00
50866;PMS7003;36839;51.946;21.002;2023-02-28T01:03:17;26.00;23.00;15.00
50866;PMS7003;36839;51.946;21.002;2023-02-28T01:05:45;28.00;25.00;18.00
50866;PMS7003;36839;51.946;21.002;2023-02-28T01:08:13;25.00;20.50;14.50
50866;PMS7003;36839;51.946;21.002;2023-02-28T01:10:41;23.00;22.50;14.00
50866;PMS7003;36839;51.946;21.002;2023-02-28T01:13:08;23.00;18.50;15.00
50866;PMS7003;36839;51.946;21.002;2023-02-28T01:15:35;23.50;21.00;14.50
50866;PMS7003;36839;51.946;21.002;2023-02-28T01:18:02;28.00;18.00;14.00
50866;PMS7003;36839;51.946;21.002;2023-02-28T01:20:30;24.50;23.00;15.50
50866;PMS7003;36839;51.946;21.002;2023-02-28T01:23:00;21.00;18.00;12.00
50866;PMS7003;36839;51.946;21.002;2023-02-28T01:25:34;21.00;16.00;11.00
50866;PMS7003;36839;51.946;21.002;2023-02-28T01:28:02;23.00;18.00;14.00
50866;PMS7003;36839;51.946;21.002;2023-02-28T01:30:30;24.00;18.00;12.00
50866;PMS7003;36839;51.946;21.002;2023-02-28T01:32:57;11.00;11.00;8.00
50866;PMS7003;36839;51.946;21.002;2023-02-28T01:35:25;18.00;14.00;11.00
50866;PMS7003;36839;51.946;21.002;2023-02-28T01:37:52;14.00;12.00;9.00
50866;PMS7003;36839;51.946;21.002;2023-02-28T01:40:19;18.00;14.50;11.00
50866;PMS7003;36839;51.946;21.002;2023-02-28T01:42:46;15.00;14.00;11.00
50866;PMS7003;36839;51.946;21.002;2023-02-28T01:45:27;17.00;14.00;10.00
50866;PMS7003;36839;51.946;21.002;2023-02-28T01:48:01;18.50;18.00;13.50
50866;PMS7003;36839;51.946;21.002;2023-02-28T01:50:52;29.00;23.00;16.00
50866;PMS7003;36839;51.946;21.002;2023-02-28T01:53:26;18.00;18.00;14.00
50866;PMS7003;36839;51.946;21.002;2023-02-28T01:58:25;22.00;18.00;14.00
50866;PMS7003;36839;51.946;21.002;2023-02-28T02:00:52;26.00;18.50;12.00
50866;PMS7003;36839;51.946;21.002;2023-02-28T02:03:19;18.50;17.00;11.50
50866;PMS7003;36839;51.946;21.002;2023-02-28T02:05:47;15.00;8.00;8.00
50866;PMS7003;36839;51.946;21.002;2023-02-28T02:08:19;14.00;14.00;10.50
50866;PMS7003;36839;51.946;21.002;2023-02-28T02:10:56;18.00;15.00;11.00
50866;PMS7003;36839;51.946;21.002;2023-02-28T02:13:34;20.00;17.00;13.00
50866;PMS7003;36839;51.946;21.002;2023-02-28T02:16:10;27.00;21.00;15.00
50866;PMS7003;36839;51.946;21.002;2023-02-28T02:19:22;23.00;19.00;15.00
50866;PMS7003;36839;51.946;21.002;2023-02-28T02:36:04;28.00;19.00;13.33
50866;PMS7003;36839;51.946;21.002;2023-02-28T02:38:53;22.50;19.50;16.00
50866;PMS7003;36839;51.946;21.002;2023-02-28T02:41:49;25.00;22.00;16.00
50866;PMS7003;36839;51.946;21.002;2023-02-28T02:47:06;19.50;17.00;13.00
50866;PMS7003;36839;51.946;21.002;2023-02-28T02:49:37;27.00;21.00;16.00
50866;PMS7003;36839;51.946;21.002;2023-02-28T02:52:09;24.00;24.00;15.00
50866;PMS7003;36839;51.946;21.002;2023-02-28T02:54:43;18.00;18.00;14.00
50866;PMS7003;36839;51.946;21.002;2023-02-28T02:59:43;25.00;17.00;11.00
50866;PMS7003;36839;51.946;21.002;2023-02-28T03:02:12;25.50;14.50;11.00
50866;PMS7003;36839;51.946;21.002;2023-02-28T03:07:11;26.00;23.00;17.00
50866;PMS7003;36839;51.946;21.002;2023-02-28T03:12:07;27.00;21.00;14.00
50866;PMS7003;36839;51.946;21.002;2023-02-28T03:17:21;26.00;21.00;13.00
50866;PMS7003;36839;51.946;21.002;2023-02-28T03:20:25;24.00;20.00;14.00
50866;PMS7003;36839;51.946;21.002;2023-02-28T03:25:33;18.00;15.00;12.00
50866;PMS7003;36839;51.946;21.002;2023-02-28T03:28:15;20.00;18.00;11.00
50866;PMS7003;36839;51.946;21.002;2023-02-28T03:30:49;17.00;11.00;11.00
50866;PMS7003;36839;51.946;21.002;2023-02-28T03:33:27;20.50;14.50;7.50
50866;PMS7003;36839;51.946;21.002;2023-02-28T03:36:02;25.00;19.00;12.00
50866;PMS7003;36839;51.946;21.002;2023-02-28T03:41:06;27.00;22.00;16.00
50866;PMS7003;36839;51.946;21.002;2023-02-28T03:43:41;24.00;23.00;15.00
50866;PMS7003;36839;51.946;21.002;2023-02-28T03:46:18;20.00;17.00;13.00
50866;PMS7003;36839;51.946;21.002;2023-02-28T03:49:32;27.00;25.00;16.50
50866;PMS7003;36839;51.946;21.002;2023-02-28T03:51:51;25.00;19.00;13.00
50866;PMS7003;36839;51.946;21.002;2023-02-28T03:54:22;20.00;20.00;13.00
50866;PMS7003;36839;51.946;21.002;2023-02-28T03:59:41;17.50;16.00;13.00
50866;PMS7003;36839;51.946;21.002;2023-02-28T04:02:13;34.00;22.00;13.00
50866;PMS7003;36839;51.946;21.002;2023-02-28T04:04:40;27.00;21.00;15.00
50866;PMS7003;36839;51.946;21.002;2023-02-28T04:07:15;24.00;16.00;13.00
50866;PMS7003;36839;51.946;21.002;2023-02-28T04:09:43;24.00;21.00;17.00
50866;PMS7003;36839;51.946;21.002;2023-02-28T04:12:10;24.00;20.50;16.00
50866;PMS7003;36839;51.946;21.002;2023-02-28T04:14:37;25.00;20.00;13.00
50866;PMS7003;36839;51.946;21.002;2023-02-28T04:17:04;25.00;16.00;10.00
50866;PMS7003;36839;51.946;21.002;2023-02-28T04:19:32;18.00;13.00;11.00
50866;PMS7003;36839;51.946;21.002;2023-02-28T04:21:59;23.00;19.00;11.00
50866;PMS7003;36839;51.946;21.002;2023-02-28T04:24:26;22.00;19.00;13.00
50866;PMS7003;36839;51.946;21.002;2023-02-28T04:26:55;26.00;18.00;13.00
50866;PMS7003;36839;51.946;21.002;2023-02-28T04:29:24;24.00;19.00;13.00
50866;PMS7003;36839;51.946;21.002;2023-02-28T04:31:54;7.00;3.00;0.00
50866;PMS7003;36839;51.946;21.002;2023-02-28T04:34:24;23.00;20.00;14.00
50866;PMS7003;36839;51.946;21.002;2023-02-28T04:44:15;25.00;23.00;16.00
50866;PMS7003;36839;51.946;21.002;2023-02-28T04:46:42;31.00;22.00;15.00
50866;PMS7003;36839;51.946;21.002;2023-02-28T04:49:13;16.00;16.00;10.00
50866;PMS7003;36839;51.946;21.002;2023-02-28T04:51:41;19.50;19.50;11.00
50866;PMS7003;36839;51.946;21.002;2023-02-28T04:54:09;20.00;16.00;13.00
50866;PMS7003;36839;51.946;21.002;2023-02-28T04:56:36;26.00;22.00;16.00
50866;PMS7003;36839;51.946;21.002;2023-02-28T04:59:03;26.00;16.50;11.50
50866;PMS7003;36839;51.946;21.002;2023-02-28T05:01:32;23.00;23.00;16.00
50866;PMS7003;36839;51.946;21.002;2023-02-28T05:04:00;22.00;20.00;13.00
50866;PMS7003;36839;51.946;21.002;2023-02-28T05:06:29;22.00;21.00;16.00
50866;PMS7003;36839;51.946;21.002;2023-02-28T05:08:57;32.50;29.50;21.50
50866;PMS7003;36839;51.946;21.002;2023-02-28T05:11:29;28.50;25.00;18.00
50866;PMS7003;36839;51.946;21.002;2023-02-28T05:14:03;26.00;25.00;16.00
50866;PMS7003;36839;51.946;21.002;2023-02-28T05:16:31;18.50;10.50;9.50
50866;PMS7003;36839;51.946;21.002;2023-02-28T05:18:59;32.50;23.50;16.00
50866;PMS7003;36839;51.946;21.002;2023-02-28T05:21:30;28.00;20.00;14.00
50866;PMS7003;36839;51.946;21.002;2023-02-28T05:23:58;31.00;20.00;14.00
50866;PMS7003;36839;51.946;21.002;2023-02-28T05:26:27;27.50;21.00;16.00
50866;PMS7003;36839;51.946;21.002;2023-02-28T05:31:23;32.00;26.00;18.00
50866;PMS7003;36839;51.946;21.002;2023-02-28T05:33:50;10.00;7.50;6.50
50866;PMS7003;36839;51.946;21.002;2023-02-28T05:36:18;27.00;25.00;18.00
50866;PMS7003;36839;51.946;21.002;2023-02-28T05:38:47;31.00;21.00;15.00
50866;PMS7003;36839;51.946;21.002;2023-02-28T05:41:15;25.00;17.00;14.00
50866;PMS7003;36839;51.946;21.002;2023-02-28T05:43:43;25.00;25.00;16.00
50866;PMS7003;36839;51.946;21.002;2023-02-28T05:46:10;31.00;27.00;18.00
50866;PMS7003;36839;51.946;21.002;2023-02-28T05:48:39;25.00;20.00;16.00
50866;PMS7003;36839;51.946;21.002;2023-02-28T05:51:07;33.00;31.00;22.00
50866;PMS7003;36839;51.946;21.002;2023-02-28T05:53:35;38.50;28.00;18.50
50866;PMS7003;36839;51.946;21.002;2023-02-28T05:56:03;28.00;27.00;19.00
50866;PMS7003;36839;51.946;21.002;2023-02-28T05:58:31;22.00;19.00;10.00
50866;PMS7003;36839;51.946;21.002;2023-02-28T06:00:58;31.00;26.00;19.00
50866;PMS7003;36839;51.946;21.002;2023-02-28T06:03:26;42.00;25.00;19.00
50866;PMS7003;36839;51.946;21.002;2023-02-28T06:05:54;37.00;32.50;23.50
50866;PMS7003;36839;51.946;21.002;2023-02-28T06:08:21;40.00;34.00;22.50
50866;PMS7003;36839;51.946;21.002;2023-02-28T06:10:48;37.00;34.00;22.00
50866;PMS7003;36839;51.946;21.002;2023-02-28T06:13:15;42.00;30.00;20.00
50866;PMS7003;36839;51.946;21.002;2023-02-28T06:15:42;37.00;19.00;17.50
50866;PMS7003;36839;51.946;21.002;2023-02-28T06:18:09;30.00;25.00;18.00
50866;PMS7003;36839;51.946;21.002;2023-02-28T06:23:03;60.50;47.50;29.50
50866;PMS7003;36839;51.946;21.002;2023-02-28T06:25:30;49.00;38.00;23.00
50866;PMS7003;36839;51.946;21.002;2023-02-28T06:27:58;41.50;39.50;27.00
50866;PMS7003;36839;51.946;21.002;2023-02-28T06:30:25;49.00;44.00;29.00
50866;PMS7003;36839;51.946;21.002;2023-02-28T06:32:56;57.00;46.50;28.50
50866;PMS7003;36839;51.946;21.002;2023-02-28T06:35:23;45.00;36.00;24.00
50866;PMS7003;36839;51.946;21.002;2023-02-28T06:37:50;38.00;33.00;26.00
50866;PMS7003;36839;51.946;21.002;2023-02-28T06:40:19;43.50;36.50;24.50
50866;PMS7003;36839;51.946;21.002;2023-02-28T06:42:47;50.00;41.00;25.00
50866;PMS7003;36839;51.946;21.002;2023-02-28T06:45:14;56.00;43.50;27.00
50866;PMS7003;36839;51.946;21.002;2023-02-28T06:47:41;48.00;38.00;25.00
50866;PMS7003;36839;51.946;21.002;2023-02-28T06:50:11;56.00;47.00;30.50
50866;PMS7003;36839;51.946;21.002;2023-02-28T06:52:39;52.00;42.00;28.00
50866;PMS7003;36839;51.946;21.002;2023-02-28T06:55:06;53.00;45.00;29.00
50866;PMS7003;36839;51.946;21.002;2023-02-28T06:57:35;57.00;45.00;28.50
50866;PMS7003;36839;51.946;21.002;2023-02-28T07:00:08;67.00;47.00;30.00
50866;PMS7003;36839;51.946;21.002;2023-02-28T07:02:39;54.00;45.50;31.50
50866;PMS7003;36839;51.946;21.002;2023-02-28T07:05:07;39.00;36.00;28.00
50866;PMS7003;36839;51.946;21.002;2023-02-28T07:07:34;49.50;42.50;27.50
50866;PMS7003;36839;51.946;21.002;2023-02-28T07:10:04;58.00;45.00;30.00
50866;PMS7003;36839;51.946;21.002;2023-02-28T07:12:34;63.00;53.00;35.00
50866;PMS7003;36839;51.946;21.002;2023-02-28T07:15:03;63.00;51.00;36.00
50866;PMS7003;36839;51.946;21.002;2023-02-28T07:17:31;72.00;57.00;37.00
50866;PMS7003;36839;51.946;21.002;2023-02-28T07:19:58;84.00;62.00;40.00
50866;PMS7003;36839;51.946;21.002;2023-02-28T07:22:25;82.00;58.00;38.00
50866;PMS7003;36839;51.946;21.002;2023-02-28T07:24:52;71.50;56.50;37.50
50866;PMS7003;36839;51.946;21.002;2023-02-28T07:29:50;73.00;56.00;37.00
50866;PMS7003;36839;51.946;21.002;2023-02-28T07:32:17;67.50;53.00;34.00
50866;PMS7003;36839;51.946;21.002;2023-02-28T07:34:45;67.00;50.00;35.00
50866;PMS7003;36839;51.946;21.002;2023-02-28T07:37:12;60.00;49.50;31.50
50866;PMS7003;36839;51.946;21.002;2023-02-28T07:39:39;58.00;48.00;33.00
50866;PMS7003;36839;51.946;21.002;2023-02-28T07:42:08;67.00;52.00;34.00
50866;PMS7003;36839;51.946;21.002;2023-02-28T07:44:41;58.00;45.00;30.00
50866;PMS7003;36839;51.946;21.002;2023-02-28T07:49:36;57.00;45.50;29.00
50866;PMS7003;36839;51.946;21.002;2023-02-28T07:54:32;54.50;43.00;28.00
50866;PMS7003;36839;51.946;21.002;2023-02-28T07:56:59;16.00;12.00;2.00
50866;PMS7003;36839;51.946;21.002;2023-02-28T07:59:26;55.00;41.00;30.00
50866;PMS7003;36839;51.946;21.002;2023-02-28T08:04:20;36.00;31.50;21.50
50866;PMS7003;36839;51.946;21.002;2023-02-28T08:06:47;33.00;33.00;23.00
50866;PMS7003;36839;51.946;21.002;2023-02-28T08:09:14;39.00;33.00;24.00
50866;PMS7003;36839;51.946;21.002;2023-02-28T08:11:41;42.00;37.00;26.00
50866;PMS7003;36839;51.946;21.002;2023-02-28T08:16:35;30.00;28.00;20.00
50866;PMS7003;36839;51.946;21.002;2023-02-28T08:19:03;39.00;33.00;24.00
50866;PMS7003;36839;51.946;21.002;2023-02-28T08:21:30;34.00;28.00;19.00
50866;PMS7003;36839;51.946;21.002;2023-02-28T08:23:57;42.00;32.00;22.00
50866;PMS7003;36839;51.946;21.002;2023-02-28T08:26:24;29.00;28.50;18.50
50866;PMS7003;36839;51.946;21.002;2023-02-28T08:28:51;26.00;23.00;16.00
50866;PMS7003;36839;51.946;21.002;2023-02-28T08:31:19;25.00;22.00;17.00
50866;PMS7003;36839;51.946;21.002;2023-02-28T08:33:46;24.00;22.00;15.00
50866;PMS7003;36839;51.946;21.002;2023-02-28T08:36:15;23.50;20.50;14.00
50866;PMS7003;36839;51.946;21.002;2023-02-28T08:38:41;24.00;23.00;16.00
50866;PMS7003;36839;51.946;21.002;2023-02-28T08:41:10;22.00;18.00;14.00
50866;PMS7003;36839;51.946;21.002;2023-02-28T08:43:39;23.00;17.50;11.50
50866;PMS7003;36839;51.946;21.002;2023-02-28T08:46:06;24.00;20.00;15.00
50866;PMS7003;36839;51.946;21.002;2023-02-28T08:48:34;26.00;21.50;15.50
50866;PMS7003;36839;51.946;21.002;2023-02-28T08:56:01;29.00;27.00;18.00
50866;PMS7003;36839;51.946;21.002;2023-02-28T08:58:40;28.00;24.00;19.00
50866;PMS7003;36839;51.946;21.002;2023-02-28T09:01:12;28.00;21.00;16.50
50866;PMS7003;36839;51.946;21.002;2023-02-28T09:03:42;27.00;25.00;18.00
50866;PMS7003;36839;51.946;21.002;2023-02-28T09:06:10;33.00;25.00;17.00
50866;PMS7003;36839;51.946;21.002;2023-02-28T09:08:38;23.00;22.00;15.00
50866;PMS7003;36839;51.946;21.002;2023-02-28T09:11:05;32.00;22.00;16.00
50866;PMS7003;36839;51.946;21.002;2023-02-28T09:13:33;29.00;28.00;19.00
50866;PMS7003;36839;51.946;21.002;2023-02-28T09:18:29;27.00;22.50;17.00
50866;PMS7003;36839;51.946;21.002;2023-02-28T09:20:57;38.50;28.50;22.50
50866;PMS7003;36839;51.946;21.002;2023-02-28T09:23:24;31.50;28.50;21.50
50866;PMS7003;36839;51.946;21.002;2023-02-28T09:25:52;27.00;23.00;17.00
50866;PMS7003;36839;51.946;21.002;2023-02-28T09:28:21;22.50;18.50;13.50
50866;PMS7003;36839;51.946;21.002;2023-02-28T09:30:50;35.00;24.00;16.00
50866;PMS7003;36839;51.946;21.002;2023-02-28T09:33:20;26.00;21.00;16.00
50866;PMS7003;36839;51.946;21.002;2023-02-28T09:35:49;28.00;23.00;17.50
50866;PMS7003;36839;51.946;21.002;2023-02-28T09:38:16;32.00;25.00;18.00
50866;PMS7003;36839;51.946;21.002;2023-02-28T09:40:51;26.00;24.00;18.00
50866;PMS7003;36839;51.946;21.002;2023-02-28T09:43:21;25.00;24.00;17.00
50866;PMS7003;36839;51.946;21.002;2023-02-28T09:48:42;26.00;24.00;18.00
50866;PMS7003;36839;51.946;21.002;2023-02-28T09:51:23;28.50;23.00;14.50
50866;PMS7003;36839;51.946;21.002;2023-02-28T09:53:57;26.50;22.00;14.00
50866;PMS7003;36839;51.946;21.002;2023-02-28T09:56:25;25.00;23.00;18.00
50866;PMS7003;36839;51.946;21.002;2023-02-28T10:07:40;32.00;25.50;18.50
50866;PMS7003;36839;51.946;21.002;2023-02-28T10:10:22;31.00;24.00;17.00
50866;PMS7003;36839;51.946;21.002;2023-02-28T10:12:52;26.00;26.00;18.50
50866;PMS7003;36839;51.946;21.002;2023-02-28T10:15:24;34.00;30.00;23.00
50866;PMS7003;36839;51.946;21.002;2023-02-28T10:17:57;29.00;28.00;20.00
50866;PMS7003;36839;51.946;21.002;2023-02-28T10:20:29;30.00;28.00;20.00
50866;PMS7003;36839;51.946;21.002;2023-02-28T10:23:03;27.00;24.00;18.00
50866;PMS7003;36839;51.946;21.002;2023-02-28T10:28:13;28.00;25.00;18.00
50866;PMS7003;36839;51.946;21.002;2023-02-28T10:30:42;21.50;20.50;17.00
50866;PMS7003;36839;51.946;21.002;2023-02-28T10:33:27;34.00;28.00;19.00
50866;PMS7003;36839;51.946;21.002;2023-02-28T10:35:58;26.50;21.50;17.00
50866;PMS7003;36839;51.946;21.002;2023-02-28T10:38:36;29.00;28.00;19.00
50866;PMS7003;36839;51.946;21.002;2023-02-28T10:41:06;28.00;23.50;18.00
50866;PMS7003;36839;51.946;21.002;2023-02-28T10:43:35;31.00;31.00;19.00
50866;PMS7003;36839;51.946;21.002;2023-02-28T10:46:09;27.00;24.50;18.00
50866;PMS7003;36839;51.946;21.002;2023-02-28T10:48:45;28.50;23.50;18.00
50866;PMS7003;36839;51.946;21.002;2023-02-28T10:51:24;27.00;26.00;16.00
50866;PMS7003;36839;51.946;21.002;2023-02-28T10:53:52;35.00;27.00;19.00
50866;PMS7003;36839;51.946;21.002;2023-02-28T10:56:21;30.00;25.00;19.00
50866;PMS7003;36839;51.946;21.002;2023-02-28T11:03:58;25.00;24.00;17.00
50866;PMS7003;36839;51.946;21.002;2023-02-28T11:06:26;36.00;27.00;21.00
50866;PMS7003;36839;51.946;21.002;2023-02-28T11:09:04;31.00;25.00;18.00
50866;PMS7003;36839;51.946;21.002;2023-02-28T11:11:45;32.50;25.50;16.00
50866;PMS7003;36839;51.946;21.002;2023-02-28T11:14:21;28.00;26.00;19.50
50866;PMS7003;36839;51.946;21.002;2023-02-28T11:16:51;25.50;21.50;14.50
50866;PMS7003;36839;51.946;21.002;2023-02-28T11:19:21;24.00;24.00;16.00
50866;PMS7003;36839;51.946;21.002;2023-02-28T11:21:56;23.00;23.00;15.00
50866;PMS7003;36839;51.946;21.002;2023-02-28T11:24:28;34.00;26.00;16.00
50866;PMS7003;36839;51.946;21.002;2023-02-28T11:26:58;32.00;26.50;19.50
50866;PMS7003;36839;51.946;21.002;2023-02-28T11:29:30;27.00;24.00;18.00
50866;PMS7003;36839;51.946;21.002;2023-02-28T11:34:35;26.50;25.50;16.00
50866;PMS7003;36839;51.946;21.002;2023-02-28T11:37:04;23.00;23.00;15.00
50866;PMS7003;36839;51.946;21.002;2023-02-28T11:39:37;28.00;24.00;19.00
50866;PMS7003;36839;51.946;21.002;2023-02-28T11:47:48;27.00;24.00;15.00
50866;PMS7003;36839;51.946;21.002;2023-02-28T11:50:42;29.00;26.00;18.00
50866;PMS7003;36839;51.946;21.002;2023-02-28T12:07:23;24.00;24.00;18.00
50866;PMS7003;36839;51.946;21.002;2023-02-28T12:13:11;32.00;26.00;18.00
50866;PMS7003;36839;51.946;21.002;2023-02-28T12:18:37;26.00;21.00;18.00
50866;PMS7003;36839;51.946;21.002;2023-02-28T12:26:54;25.50;22.00;17.00
50866;PMS7003;36839;51.946;21.002;2023-02-28T12:29:30;26.00;26.00;19.00
50866;PMS7003;36839;51.946;21.002;2023-02-28T12:32:05;28.00;24.00;20.00
50866;PMS7003;36839;51.946;21.002;2023-02-28T12:34:44;32.00;24.00;19.00
50866;PMS7003;36839;51.946;21.002;2023-02-28T12:37:20;31.50;23.00;18.50
50866;PMS7003;36839;51.946;21.002;2023-02-28T12:42:52;31.00;27.00;18.00
50866;PMS7003;36839;51.946;21.002;2023-02-28T12:48:11;34.00;34.00;23.00
50866;PMS7003;36839;51.946;21.002;2023-02-28T12:50:53;35.50;27.50;18.00
50866;PMS7003;36839;51.946;21.002;2023-02-28T12:53:30;51.00;40.50;27.00
50866;PMS7003;36839;51.946;21.002;2023-02-28T13:09:56;26.00;22.00;16.00
50866;PMS7003;36839;51.946;21.002;2023-02-28T13:12:26;29.00;27.00;17.00
50866;PMS7003;36839;51.946;21.002;2023-02-28T13:17:48;27.00;20.50;15.00
50866;PMS7003;36839;51.946;21.002;2023-02-28T13:20:27;21.00;20.00;15.00
50866;PMS7003;36839;51.946;21.002;2023-02-28T13:23:00;26.00;24.00;16.00
50866;PMS7003;36839;51.946;21.002;2023-02-28T13:28:08;22.00;21.00;16.00
50866;PMS7003;36839;51.946;21.002;2023-02-28T13:44:03;29.00;25.00;17.00
50866;PMS7003;36839;51.946;21.002;2023-02-28T13:46:33;26.00;22.50;16.50
50866;PMS7003;36839;51.946;21.002;2023-02-28T13:54:50;29.00;26.00;20.00
50866;PMS7003;36839;51.946;21.002;2023-02-28T14:00:37;25.50;23.00;17.00
50866;PMS7003;36839;51.946;21.002;2023-02-28T14:06:30;35.50;27.00;20.00
50866;PMS7003;36839;51.946;21.002;2023-02-28T14:11:36;25.00;24.00;18.00
50866;PMS7003;36839;51.946;21.002;2023-02-28T14:17:03;28.00;24.00;19.00
50866;PMS7003;36839;51.946;21.002;2023-02-28T14:32:47;24.00;23.00;15.00
50866;PMS7003;36839;51.946;21.002;2023-02-28T14:35:45;34.00;24.00;17.00
50866;PMS7003;36839;51.946;21.002;2023-02-28T14:41:06;9.50;8.00;1.00
50866;PMS7003;36839;51.946;21.002;2023-02-28T14:43:53;23.00;20.00;15.00
50866;PMS7003;36839;51.946;21.002;2023-02-28T14:46:28;19.00;18.00;13.00
50866;PMS7003;36839;51.946;21.002;2023-02-28T14:49:03;51.50;40.00;27.00
50866;PMS7003;36839;51.946;21.002;2023-02-28T14:51:38;36.00;27.00;18.00
50866;PMS7003;36839;51.946;21.002;2023-02-28T14:54:05;27.00;24.00;18.00
50866;PMS7003;36839;51.946;21.002;2023-02-28T14:56:35;32.00;28.00;21.00
50866;PMS7003;36839;51.946;21.002;2023-02-28T14:59:05;26.00;24.00;19.00
50866;PMS7003;36839;51.946;21.002;2023-02-28T15:01:49;33.00;29.00;18.50
50866;PMS7003;36839;51.946;21.002;2023-02-28T15:04:26;34.00;32.00;23.00
50866;PMS7003;36839;51.946;21.002;2023-02-28T15:07:15;56.00;42.00;29.50
50866;PMS7003;36839;51.946;21.002;2023-02-28T15:09:41;29.50;27.50;18.50
50866;PMS7003;36839;51.946;21.002;2023-02-28T15:12:09;28.00;24.00;17.00
50866;PMS7003;36839;51.946;21.002;2023-02-28T15:14:42;24.00;22.00;17.00
50866;PMS7003;36839;51.946;21.002;2023-02-28T15:17:13;38.00;29.00;20.00
50866;PMS7003;36839;51.946;21.002;2023-02-28T15:19:50;28.50;26.00;18.50
50866;PMS7003;36839;51.946;21.002;2023-02-28T15:22:22;28.00;27.00;20.00
50866;PMS7003;36839;51.946;21.002;2023-02-28T15:24:58;32.50;28.50;17.50
50866;PMS7003;36839;51.946;21.002;2023-02-28T15:27:29;55.00;43.00;28.00
50866;PMS7003;36839;51.946;21.002;2023-02-28T15:29:59;31.00;27.00;21.00
50866;PMS7003;36839;51.946;21.002;2023-02-28T15:32:33;26.50;22.00;16.50
50866;PMS7003;36839;51.946;21.002;2023-02-28T15:35:19;27.00;27.00;20.00
50866;PMS7003;36839;51.946;21.002;2023-02-28T15:37:55;25.50;23.50;15.00
50866;PMS7003;36839;51.946;21.002;2023-02-28T15:43:12;35.00;25.00;19.00
50866;PMS7003;36839;51.946;21.002;2023-02-28T15:45:46;37.00;32.00;20.00
50866;PMS7003;36839;51.946;21.002;2023-02-28T15:48:22;33.00;29.00;19.00
50866;PMS7003;36839;51.946;21.002;2023-02-28T15:53:47;30.00;29.00;20.00
50866;PMS7003;36839;51.946;21.002;2023-02-28T15:56:20;34.00;30.00;21.00
50866;PMS7003;36839;51.946;21.002;2023-02-28T15:59:01;33.00;28.00;19.00
50866;PMS7003;36839;51.946;21.002;2023-02-28T16:01:37;36.00;33.00;22.00
50866;PMS7003;36839;51.946;21.002;2023-02-28T16:04:12;27.00;25.00;18.00
50866;PMS7003;36839;51.946;21.002;2023-02-28T16:06:45;29.50;20.50;15.50
50866;PMS7003;36839;51.946;21.002;2023-02-28T16:09:15;37.00;35.00;24.00
50866;PMS7003;36839;51.946;21.002;2023-02-28T16:11:50;49.00;36.00;24.00
50866;PMS7003;36839;51.946;21.002;2023-02-28T16:14:21;58.00;44.00;28.00
50866;PMS7003;36839;51.946;21.002;2023-02-28T16:16:54;50.00;38.00;25.00
50866;PMS7003;36839;51.946;21.002;2023-02-28T16:19:23;64.50;49.50;30.50
50866;PMS7003;36839;51.946;21.002;2023-02-28T16:21:51;53.50;44.00;27.50
50866;PMS7003;36839;51.946;21.002;2023-02-28T16:24:18;63.50;47.00;28.50
50866;PMS7003;36839;51.946;21.002;2023-02-28T16:26:50;59.00;43.00;27.00
50866;PMS7003;36839;51.946;21.002;2023-02-28T16:29:26;81.00;58.00;39.00
50866;PMS7003;36839;51.946;21.002;2023-02-28T16:31:56;83.50;60.50;38.50
50866;PMS7003;36839;51.946;21.002;2023-02-28T16:34:24;81.00;59.00;39.00
50866;PMS7003;36839;51.946;21.002;2023-02-28T16:36:51;85.00;62.00;41.00
50866;PMS7003;36839;51.946;21.002;2023-02-28T16:39:19;78.00;57.00;38.00
50866;PMS7003;36839;51.946;21.002;2023-02-28T16:41:48;77.00;60.00;38.00
50866;PMS7003;36839;51.946;21.002;2023-02-28T16:46:56;54.00;43.00;27.00
50866;PMS7003;36839;51.946;21.002;2023-02-28T16:49:24;53.00;40.00;26.00
50866;PMS7003;36839;51.946;21.002;2023-02-28T16:51:51;51.00;39.00;25.00
50866;PMS7003;36839;51.946;21.002;2023-02-28T16:54:18;34.00;33.00;24.00
50866;PMS7003;36839;51.946;21.002;2023-02-28T16:56:46;40.00;35.00;24.50
50866;PMS7003;36839;51.946;21.002;2023-02-28T16:59:17;39.00;30.00;22.00
50866;PMS7003;36839;51.946;21.002;2023-02-28T17:01:56;46.00;37.00;24.00
50866;PMS7003;36839;51.946;21.002;2023-02-28T17:07:16;59.00;47.00;30.00
50866;PMS7003;36839;51.946;21.002;2023-02-28T17:09:44;47.00;41.00;27.00
50866;PMS7003;36839;51.946;21.002;2023-02-28T17:12:12;52.00;39.00;26.00
50866;PMS7003;36839;51.946;21.002;2023-02-28T17:14:40;67.00;51.00;34.00
50866;PMS7003;36839;51.946;21.002;2023-02-28T17:17:09;64.00;46.00;28.00
50866;PMS7003;36839;51.946;21.002;2023-02-28T17:19:44;50.00;41.00;26.00
50866;PMS7003;36839;51.946;21.002;2023-02-28T17:22:12;50.00;39.00;26.00
50866;PMS7003;36839;51.946;21.002;2023-02-28T17:24:40;52.00;41.00;27.00
50866;PMS7003;36839;51.946;21.002;2023-02-28T17:27:09;52.00;37.00;25.00
50866;PMS7003;36839;51.946;21.002;2023-02-28T17:29:39;54.00;42.00;27.00